Time;durP1;ratioP1;P1;durP2;ratioP2;P2;SDS_P1;SDS_P2;PMS_P1;PMS_P2;Temp;Humidity;BMP_temperature;BMP_pressure;BME280_temperature;BME280_humidity;BME280_pressure;Samples;Min_cycle;Max_cycle;Signal;HPM_P1;HPM_P2
2022/04/27 04:01:24;;;;;;;12.57;10.07;;;;;;;14.24;75.26;100504.06;5604541;31;76927;-55
2022/04/27 04:04:27;;;;;;;11.65;9.95;;;;;;;14.24;75.26;100504.06;5590999;31;33303;-55
2022/04/27 04:07:30;;;;;;;11.25;9.73;;;;;;;13.75;76.22;100506.38;5602542;31;33182;-55
2022/04/27 04:10:33;;;;;;;12.85;10.00;;;;;;;13.79;75.82;100509.25;5602364;31;31795;-57
2022/04/27 04:13:35;;;;;;;12.05;9.40;;;;;;;13.83;76.59;100507.56;5601608;31;33557;-53
2022/04/27 04:16:38;;;;;;;14.50;10.27;;;;;;;13.82;74.85;100511.34;5602718;31;33640;-53
2022/04/27 04:19:41;;;;;;;13.82;10.30;;;;;;;13.88;76.04;100518.25;5601355;31;33674;-53
2022/04/27 04:22:46;;;;;;;11.90;9.68;;;;;;;14.00;75.01;100517.75;5597081;31;33232;-52
2022/04/27 04:29:11;;;;;;;12.50;9.95;;;;;;;13.88;76.50;100533.62;5596862;31;34285;-53
2022/04/27 04:32:14;;;;;;;12.52;9.48;;;;;;;13.83;77.28;100534.50;5590146;31;33404;-54
2022/04/27 04:35:17;;;;;;;13.90;10.07;;;;;;;13.86;77.97;100532.00;5596427;31;34199;-52
2022/04/27 04:38:20;;;;;;;12.18;10.05;;;;;;;13.89;78.30;100532.53;5583341;31;34409;-53
2022/04/27 04:41:23;;;;;;;12.63;9.88;;;;;;;13.96;77.80;100536.41;5574018;31;34163;-53
2022/04/27 04:44:25;;;;;;;12.73;10.05;;;;;;;14.09;75.63;100546.41;5563384;32;33311;-54
2022/04/27 04:47:30;;;;;;;14.10;9.43;;;;;;;14.17;74.87;100544.09;5563737;32;34736;-53
2022/04/27 04:50:35;;;;;;;12.75;10.38;;;;;;;14.10;74.80;100550.72;5579100;31;33426;-53
2022/04/27 04:53:38;;;;;;;11.27;8.95;;;;;;;14.01;77.66;100551.72;5592509;31;33210;-53
2022/04/27 04:56:40;;;;;;;10.93;9.45;;;;;;;14.02;73.59;100553.28;5602391;31;33629;-53
2022/04/27 04:59:42;;;;;;;11.68;9.90;;;;;;;13.98;76.80;100573.88;5591695;31;33317;-53
2022/04/27 05:02:45;;;;;;;11.32;9.80;;;;;;;14.10;74.63;100563.38;5582087;32;33312;-53
2022/04/27 05:05:48;;;;;;;14.65;10.20;;;;;;;14.13;73.62;100573.56;5581930;31;33328;-53
2022/04/27 05:08:50;;;;;;;14.00;9.85;;;;;;;14.10;77.06;100566.88;5578062;31;34291;-53
2022/04/27 05:11:53;;;;;;;11.80;9.82;;;;;;;14.20;75.36;100571.25;5577035;31;34388;-54
2022/04/27 05:14:55;;;;;;;11.10;8.88;;;;;;;14.37;71.89;100570.69;5570657;31;32253;-52
2022/04/27 05:17:58;;;;;;;10.32;9.02;;;;;;;14.23;71.55;100569.88;5568859;32;32432;-53
2022/04/27 05:21:01;;;;;;;10.98;9.38;;;;;;;14.41;71.84;100562.78;5568588;31;33118;-53
2022/04/27 05:24:04;;;;;;;13.50;8.52;;;;;;;14.34;71.97;100580.16;5577643;31;33423;-55
2022/04/27 05:27:06;;;;;;;15.32;9.82;;;;;;;14.52;71.12;100583.88;5571543;31;33307;-55
2022/04/27 05:33:39;;;;;;;12.05;9.60;;;;;;;14.80;72.34;100581.94;5549746;32;33729;-55
2022/04/27 05:36:42;;;;;;;12.30;10.23;;;;;;;14.94;68.15;100583.81;5563668;32;33659;-55
2022/04/27 05:39:44;;;;;;;11.90;9.27;;;;;;;14.94;70.12;100584.59;5568671;32;33251;-55
2022/04/27 05:42:48;;;;;;;11.12;8.52;;;;;;;15.02;66.68;100591.16;5568427;31;33154;-55
2022/04/27 05:45:56;;;;;;;12.40;9.55;;;;;;;15.10;65.78;100585.06;5568169;32;33617;-55
2022/04/27 05:49:00;;;;;;;11.73;9.27;;;;;;;15.01;64.93;100589.59;5568439;31;34293;-55
2022/04/27 05:52:03;;;;;;;11.65;9.00;;;;;;;14.93;64.93;100591.12;5568387;32;33396;-55
2022/04/27 05:55:06;;;;;;;12.70;9.45;;;;;;;14.83;66.95;100601.31;5568129;32;33515;-56
2022/04/27 05:58:08;;;;;;;13.82;9.65;;;;;;;14.78;70.71;100608.44;5568210;32;34264;-55
2022/04/27 06:01:14;;;;;;;15.80;10.10;;;;;;;14.86;65.58;100614.22;5566805;32;33513;-55
2022/04/27 06:04:17;;;;;;;12.63;9.23;;;;;;;14.87;66.17;100613.91;5568579;31;33150;-55
2022/04/27 06:07:19;;;;;;;12.70;10.00;;;;;;;14.88;66.49;100618.22;5567623;32;34407;-55
2022/04/27 06:10:22;;;;;;;13.07;9.65;;;;;;;14.85;67.52;100612.63;5567126;32;33991;-55
2022/04/27 06:13:26;;;;;;;11.88;8.73;;;;;;;14.87;65.98;100605.03;5567910;31;34241;-55
2022/04/27 06:16:32;;;;;;;12.50;9.23;;;;;;;14.90;63.88;100605.22;5568000;31;34340;-55
2022/04/27 06:19:35;;;;;;;10.77;9.02;;;;;;;15.01;62.59;100614.69;5567853;31;34180;-55
2022/04/27 06:22:38;;;;;;;12.25;8.65;;;;;;;15.06;62.99;100611.06;5566879;31;33408;-56
2022/04/27 06:25:41;;;;;;;10.93;9.07;;;;;;;14.93;63.68;100617.28;5567999;31;33540;-54
2022/04/27 06:28:43;;;;;;;12.90;9.52;;;;;;;15.02;62.15;100612.78;5567503;32;33983;-56
2022/04/27 06:31:46;;;;;;;12.18;9.27;;;;;;;14.98;64.55;100623.37;5567795;31;34280;-55
2022/04/27 06:34:48;;;;;;;13.52;9.48;;;;;;;15.14;63.58;100614.94;5567619;32;33617;-55
2022/04/27 06:37:50;;;;;;;11.90;8.48;;;;;;;15.12;62.52;100617.94;5567584;32;34612;-55
2022/04/27 06:40:53;;;;;;;11.45;9.05;;;;;;;15.18;61.28;100634.84;5567120;31;33785;-56
2022/04/27 06:43:56;;;;;;;11.80;9.25;;;;;;;15.25;61.49;100627.09;5567460;32;33353;-56
2022/04/27 06:47:08;;;;;;;12.93;8.88;;;;;;;15.16;63.31;100626.22;5567205;31;34482;-55
2022/04/27 06:50:28;;;;;;;12.23;10.13;;;;;;;15.26;63.31;100631.41;5567420;31;33478;-56
2022/04/27 06:53:50;;;;;;;14.77;10.32;;;;;;;15.25;60.43;100637.91;5575183;31;33530;-55
2022/04/27 06:56:53;;;;;;;15.10;9.88;;;;;;;15.34;64.02;100635.28;5576692;31;33395;-56
2022/04/27 06:59:56;;;;;;;11.02;9.20;;;;;;;15.40;63.20;100639.47;5576247;31;33273;-55
2022/04/27 07:02:59;;;;;;;11.73;8.68;;;;;;;15.38;58.90;100647.88;5587051;31;33575;-55
2022/04/27 07:06:02;;;;;;;13.60;9.25;;;;;;;15.46;62.05;100655.25;5585983;31;33642;-55
2022/04/27 07:09:07;;;;;;;13.77;8.93;;;;;;;15.59;59.71;100653.59;5581793;31;33098;-56
2022/04/27 07:12:10;;;;;;;11.00;8.40;;;;;;;15.58;58.90;100659.31;5567832;31;33640;-55
2022/04/27 07:15:12;;;;;;;14.70;9.05;;;;;;;15.90;65.16;100659.09;5567779;32;34390;-55
2022/04/27 07:18:15;;;;;;;12.75;9.05;;;;;;;15.97;60.64;100666.75;5574210;31;34543;-55
2022/04/27 07:21:17;;;;;;;11.82;8.15;;;;;;;16.11;57.40;100667.47;5577080;31;33675;-55
2022/04/27 07:24:20;;;;;;;9.82;7.95;;;;;;;16.01;57.50;100670.44;5567555;31;33175;-55
2022/04/27 07:27:23;;;;;;;13.93;8.75;;;;;;;16.25;63.49;100675.50;5567130;31;33694;-55
2022/04/27 07:30:25;;;;;;;13.23;8.65;;;;;;;16.43;63.66;100676.38;5564469;31;33625;-55
2022/04/27 07:33:27;;;;;;;12.32;8.98;;;;;;;16.47;59.11;100673.84;5562146;31;33259;-55
2022/04/27 07:36:30;;;;;;;12.95;9.00;;;;;;;16.75;57.51;100671.75;5566212;32;34386;-56
2022/04/27 07:39:32;;;;;;;11.80;9.30;;;;;;;16.72;56.82;100667.75;5566912;32;33784;-55
2022/04/27 07:42:35;;;;;;;12.40;9.93;;;;;;;16.53;55.94;100672.59;5566997;31;33245;-55
2022/04/27 07:45:37;;;;;;;12.10;8.48;;;;;;;16.15;57.51;100670.34;5567260;31;33636;-55
2022/04/27 07:48:40;;;;;;;11.98;9.25;;;;;;;16.20;62.71;100678.34;5566745;32;33330;-55
2022/04/27 07:51:42;;;;;;;11.48;8.68;;;;;;;16.52;59.56;100685.31;5567494;31;34264;-54
2022/04/27 07:54:50;;;;;;;14.23;8.65;;;;;;;16.17;55.59;100677.06;5584503;31;33193;-56
2022/04/27 07:57:52;;;;;;;12.40;9.23;;;;;;;16.33;59.04;100685.56;5581981;31;33952;-55
2022/04/27 08:00:54;;;;;;;14.98;9.73;;;;;;;16.55;56.10;100683.91;5576634;31;34037;-56
2022/04/27 08:03:57;;;;;;;12.13;8.85;;;;;;;16.79;60.39;100692.47;5571640;31;34013;-55
2022/04/27 08:06:59;;;;;;;11.10;8.93;;;;;;;16.73;60.75;100682.06;5573867;31;34243;-55
2022/04/27 08:10:12;;;;;;;11.60;8.83;;;;;;;16.63;55.42;100686.66;5568034;31;33759;-55
2022/04/27 08:13:17;;;;;;;13.02;9.15;;;;;;;16.43;56.77;100687.22;5566910;32;33592;-55
2022/04/27 08:16:20;;;;;;;12.32;8.95;;;;;;;16.45;57.02;100683.06;5560745;31;34317;-55
2022/04/27 08:19:22;;;;;;;12.60;8.65;;;;;;;16.55;56.92;100694.72;5568602;31;33963;-55
2022/04/27 08:22:25;;;;;;;12.65;9.82;;;;;;;16.43;55.20;100692.62;5568868;31;34360;-55
2022/04/27 08:25:27;;;;;;;14.43;8.88;;;;;;;16.35;58.11;100696.06;5566488;31;33221;-55
2022/04/27 08:28:30;;;;;;;10.68;8.38;;;;;;;16.43;59.10;100700.75;5558975;32;33629;-55
2022/04/27 08:31:32;;;;;;;12.95;9.43;;;;;;;16.66;57.11;100704.19;5572639;31;33958;-57
2022/04/27 08:34:35;;;;;;;12.43;9.40;;;;;;;16.67;55.46;100705.78;5561857;32;33837;-55
2022/04/27 08:37:38;;;;;;;10.73;8.60;;;;;;;16.68;57.48;100705.44;5568720;31;33884;-56
2022/04/27 08:40:44;;;;;;;13.68;9.10;;;;;;;16.59;63.83;100698.44;5572723;31;33779;-56
2022/04/27 08:43:46;;;;;;;12.52;9.00;;;;;;;16.71;55.36;100706.72;5565201;32;33248;-55
2022/04/27 08:46:50;;;;;;;13.40;9.18;;;;;;;16.67;54.20;100703.84;5566977;31;32848;-55
2022/04/27 08:49:53;;;;;;;13.77;8.77;;;;;;;16.61;57.79;100704.31;5568245;31;34280;-55
2022/04/27 08:52:55;;;;;;;14.32;9.00;;;;;;;16.85;56.89;100702.06;5583111;31;33986;-56
2022/04/27 08:55:57;;;;;;;13.02;9.48;;;;;;;16.78;58.55;100698.97;5588361;31;33665;-55
2022/04/27 08:59:00;;;;;;;11.90;9.50;;;;;;;16.73;55.56;100696.41;5571889;31;33411;-55
2022/04/27 09:02:28;;;;;;;11.68;9.05;;;;;;;16.79;57.25;100691.69;5567818;31;33158;-55
2022/04/27 09:05:31;;;;;;;12.27;9.35;;;;;;;16.73;55.34;100688.28;5572379;31;34293;-55
2022/04/27 09:08:37;;;;;;;12.90;9.98;;;;;;;16.78;57.42;100690.84;5574703;31;33621;-56
2022/04/27 09:11:39;;;;;;;12.10;8.73;;;;;;;16.74;55.30;100683.66;5568931;32;33288;-55
2022/04/27 09:14:44;;;;;;;35.15;10.20;;;;;;;16.62;55.76;100693.19;5568400;31;34389;-56
2022/04/27 09:21:12;;;;;;;;;;;;;;;16.94;56.81;100696.62;5576501;31;33585;-55
2022/04/27 09:24:15;;;;;;;14.55;8.93;;;;;;;17.02;57.23;100703.19;5567880;31;33589;-55
2022/04/27 09:27:19;;;;;;;10.55;8.60;;;;;;;17.01;56.35;100701.59;5584191;31;33812;-57
2022/04/27 09:30:26;;;;;;;13.35;8.73;;;;;;;17.07;57.55;100695.72;5553988;31;34414;-55
2022/04/27 09:33:32;;;;;;;10.45;8.18;;;;;;;17.14;58.87;100690.63;5567609;31;33656;-55
2022/04/27 09:36:35;;;;;;;12.45;9.32;;;;;;;17.11;58.67;100699.38;5567569;31;33570;-55
2022/04/27 09:39:37;;;;;;;9.80;7.93;;;;;;;17.04;55.17;100698.25;5567189;31;33719;-56
2022/04/27 09:42:44;;;;;;;13.00;8.40;;;;;;;16.99;57.19;100695.72;5565355;31;33942;-55
2022/04/27 09:45:46;;;;;;;12.48;8.30;;;;;;;16.93;56.90;100692.34;5569280;31;34363;-55
2022/04/27 09:49:04;;;;;;;10.77;8.95;;;;;;;17.02;58.32;100690.47;5586382;31;33825;-55
2022/04/27 09:52:27;;;;;;;14.52;9.10;;;;;;;16.89;55.82;100692.19;5568480;31;33382;-55
2022/04/27 09:55:30;;;;;;;12.55;8.93;;;;;;;16.85;55.57;100685.81;5574559;31;33612;-55
2022/04/27 09:58:32;;;;;;;9.70;8.23;;;;;;;16.74;56.49;100679.03;5568220;32;33631;-55
2022/04/27 10:01:36;;;;;;;13.07;8.25;;;;;;;16.76;56.25;100684.97;5572124;31;33896;-55
2022/04/27 10:04:40;;;;;;;10.05;8.93;;;;;;;16.86;60.32;100681.97;5587871;31;33621;-56
2022/04/27 10:07:43;;;;;;;11.90;9.25;;;;;;;16.83;55.59;100690.72;5576246;31;33675;-55
2022/04/27 10:10:47;;;;;;;15.02;8.38;;;;;;;16.65;55.74;100683.63;5567542;31;33310;-54
2022/04/27 10:13:51;;;;;;;10.25;8.50;;;;;;;16.81;60.16;100681.31;5575188;31;33618;-53
2022/04/27 10:16:55;;;;;;;10.77;8.93;;;;;;;16.96;56.67;100686.31;5575017;31;33286;-53
2022/04/27 10:19:58;;;;;;;11.98;9.27;;;;;;;17.10;55.43;100688.88;5578218;31;34326;-53
2022/04/27 10:23:28;;;;;;;15.02;9.18;;;;;;;16.98;55.98;100688.69;5587272;31;34335;-53
2022/04/27 10:26:30;;;;;;;11.12;9.05;;;;;;;16.90;55.20;100696.47;5575905;31;33640;-53
2022/04/27 10:29:32;;;;;;;11.32;9.13;;;;;;;16.82;55.75;100696.44;5571097;31;33205;-53
2022/04/27 10:32:35;;;;;;;16.17;9.80;;;;;;;16.66;56.77;100701.47;5583799;31;33357;-53
2022/04/27 10:35:38;;;;;;;14.07;9.07;;;;;;;16.53;55.84;100699.66;5586984;31;34417;-53
2022/04/27 10:38:40;;;;;;;12.57;9.38;;;;;;;16.56;59.27;100701.75;5572251;31;34299;-53
2022/04/27 10:42:03;;;;;;;11.50;9.70;;;;;;;16.70;57.28;100702.44;5567436;32;34174;-53
2022/04/27 10:45:06;;;;;;;13.40;8.93;;;;;;;16.69;56.10;100706.25;5566897;32;33596;-53
2022/04/27 10:48:21;;;;;;;11.30;8.93;;;;;;;16.71;58.01;100697.81;5567341;31;34396;-53
2022/04/27 10:51:24;;;;;;;10.57;8.47;;;;;;;16.68;56.38;100701.94;5564271;31;33380;-53
2022/04/27 10:54:37;;;;;;;15.95;8.68;;;;;;;16.69;58.16;100706.25;5570487;31;33431;-53
2022/04/27 10:57:41;;;;;;;12.00;8.52;;;;;;;16.81;59.91;100697.56;5571590;31;34303;-53
2022/04/27 11:00:58;;;;;;;10.00;7.78;;;;;;;16.58;57.11;100696.81;5565805;31;33726;-53
2022/04/27 11:04:06;;;;;;;12.43;8.25;;;;;;;16.73;60.06;100696.41;5566675;31;33308;-53
2022/04/27 11:07:19;;;;;;;10.38;8.32;;;;;;;16.68;57.54;100693.81;5569901;31;33427;-53
2022/04/27 11:10:24;;;;;;;10.20;8.18;;;;;;;16.77;59.70;100694.69;5552573;32;34268;-54
2022/04/27 11:13:30;;;;;;;10.07;7.95;;;;;;;16.75;58.90;100696.09;5568191;31;33416;-54
2022/04/27 11:16:49;;;;;;;11.88;8.35;;;;;;;16.63;57.91;100707.50;5571272;31;34328;-53
2022/04/27 11:19:52;;;;;;;10.20;8.00;;;;;;;16.63;58.20;100712.94;5567703;31;34007;-53
2022/04/27 11:22:56;;;;;;;12.50;8.30;;;;;;;16.67;57.99;100705.78;5570254;31;34518;-54
2022/04/27 11:25:59;;;;;;;13.02;8.30;;;;;;;16.63;60.01;100707.50;5558607;32;33516;-54
2022/04/27 11:29:02;;;;;;;10.27;7.82;;;;;;;16.63;58.50;100712.94;5567078;32;33803;-53
2022/04/27 11:32:10;;;;;;;11.52;8.77;;;;;;;16.56;57.90;100707.16;5567438;31;34299;-54
2022/04/27 11:35:13;;;;;;;10.95;8.98;;;;;;;16.36;58.60;100714.72;5570425;31;33184;-53
2022/04/27 11:38:20;;;;;;;9.95;8.50;;;;;;;16.33;59.15;100715.34;5585212;31;34356;-53
2022/04/27 11:41:24;;;;;;;11.93;8.30;;;;;;;16.23;60.23;100718.31;5566549;31;31683;-53
2022/04/27 11:44:27;;;;;;;10.23;8.90;;;;;;;16.34;64.01;100711.50;5569891;31;33393;-53
2022/04/27 11:47:31;;;;;;;12.20;8.45;;;;;;;16.40;61.87;100714.87;5566365;31;33697;-54
2022/04/27 11:50:36;;;;;;;12.32;9.35;;;;;;;16.40;63.06;100721.09;5569450;31;33741;-53
2022/04/27 11:53:49;;;;;;;13.20;9.57;;;;;;;16.32;62.40;100719.13;5584992;31;33598;-53
2022/04/27 11:56:56;;;;;;;12.23;8.90;;;;;;;16.23;63.29;100722.91;5570994;31;33725;-53
2022/04/27 11:59:58;;;;;;;15.05;10.63;;;;;;;16.34;65.72;100721.53;5566282;32;33901;-53
2022/04/27 12:03:13;;;;;;;12.43;10.82;;;;;;;16.15;62.89;100719.03;5568769;31;34044;-53
2022/04/27 12:06:21;;;;;;;14.27;10.80;;;;;;;16.04;62.86;100720.41;5566900;32;33685;-53
2022/04/27 12:09:24;;;;;;;14.60;11.10;;;;;;;15.89;64.49;100719.69;5576026;31;34009;-53
2022/04/27 12:12:28;;;;;;;12.50;11.18;;;;;;;16.05;63.78;100719.28;5586496;31;33934;-53
2022/04/27 12:15:30;;;;;;;12.80;11.05;;;;;;;15.92;64.89;100721.75;5586362;31;33257;-53
2022/04/27 12:18:33;;;;;;;14.10;11.30;;;;;;;15.84;65.01;100717.09;5585218;31;33340;-53
2022/04/27 12:21:37;;;;;;;16.85;12.27;;;;;;;15.82;64.89;100713.88;5580951;31;33516;-53
2022/04/27 12:24:44;;;;;;;18.05;12.30;;;;;;;15.68;65.56;100718.56;5587635;31;33752;-52
2022/04/27 12:27:48;;;;;;;18.40;11.68;;;;;;;15.70;66.11;100719.06;5587395;31;34373;-53
2022/04/27 12:30:52;;;;;;;14.70;11.88;;;;;;;15.68;65.62;100722.03;5585874;31;33883;-53
2022/04/27 12:33:59;;;;;;;14.48;12.60;;;;;;;15.66;66.20;100710.75;5569064;32;33646;-54
2022/04/27 12:40:23;;;;;;;21.90;15.13;;;;;;;15.66;66.82;100712.59;5569563;31;33400;-53
2022/04/27 12:43:26;;;;;;;16.62;13.80;;;;;;;15.55;67.27;100705.84;5569014;31;34228;-53
2022/04/27 12:46:28;;;;;;;18.85;14.57;;;;;;;15.41;68.29;100712.09;5569149;31;34288;-53
2022/04/27 12:49:32;;;;;;;17.83;15.15;;;;;;;15.36;67.76;100708.69;5569190;32;33428;-53
2022/04/27 12:52:36;;;;;;;17.80;15.25;;;;;;;15.25;68.88;100705.44;5568963;31;33621;-53
2022/04/27 12:55:38;;;;;;;17.25;14.93;;;;;;;15.05;69.53;100709.38;5560537;32;33383;-54
2022/04/27 12:58:41;;;;;;;19.12;16.27;;;;;;;15.02;71.33;100710.75;5569309;32;34483;-52
2022/04/27 13:01:43;;;;;;;22.15;16.98;;;;;;;14.93;69.75;100718.00;5570746;31;33669;-53
2022/04/27 13:04:47;;;;;;;19.30;17.27;;;;;;;14.89;69.55;100716.19;5577081;31;34446;-52
2022/04/27 13:07:49;;;;;;;20.95;16.17;;;;;;;14.73;70.38;100712.97;5569944;31;33642;-52
2022/04/27 13:14:12;;;;;;;17.92;15.30;;;;;;;14.72;70.89;100714.06;5569239;32;33361;-53
2022/04/27 13:17:15;;;;;;;20.00;17.45;;;;;;;14.85;70.51;100715.97;5569230;31;33731;-53
2022/04/27 13:20:17;;;;;;;21.17;16.62;;;;;;;14.85;70.08;100717.88;5568295;32;33604;-54
2022/04/27 13:23:21;;;;;;;20.15;16.35;;;;;;;14.94;71.71;100710.69;5569146;32;34409;-54
2022/04/27 13:26:23;;;;;;;19.95;16.12;;;;;;;14.84;72.99;100722.47;5568515;32;34408;-54
2022/04/27 13:29:25;;;;;;;20.50;16.40;;;;;;;14.96;72.57;100721.97;5581546;31;33664;-54
2022/04/27 13:32:28;;;;;;;19.20;15.88;;;;;;;15.02;71.01;100713.47;5588174;31;34592;-53
2022/04/27 13:35:31;;;;;;;19.95;16.33;;;;;;;15.13;72.72;100710.53;5582971;31;33646;-53
2022/04/27 13:38:33;;;;;;;17.35;15.43;;;;;;;15.09;73.15;100721.16;5568523;32;33929;-54
2022/04/27 13:41:35;;;;;;;19.50;16.17;;;;;;;15.03;72.67;100720.47;5568758;32;33371;-53
2022/04/27 13:44:38;;;;;;;20.33;14.85;;;;;;;14.91;72.73;100724.78;5577733;31;33678;-53
2022/04/27 13:47:40;;;;;;;18.15;15.68;;;;;;;14.79;73.26;100733.38;5571830;31;33672;-54
2022/04/27 13:50:43;;;;;;;18.60;15.13;;;;;;;14.87;72.21;100729.19;5568348;32;33707;-53
2022/04/27 13:53:45;;;;;;;19.48;14.35;;;;;;;14.99;71.11;100732.16;5568711;31;34266;-53
2022/04/27 13:56:47;;;;;;;19.55;17.00;;;;;;;14.90;72.08;100737.47;5582386;31;33782;-53
2022/04/27 13:59:50;;;;;;;18.92;15.98;;;;;;;14.74;73.80;100736.97;5588307;31;33756;-54
2022/04/27 14:02:52;;;;;;;18.42;15.00;;;;;;;14.53;75.35;100738.44;5588417;31;33663;-53
2022/04/27 14:05:55;;;;;;;16.27;14.55;;;;;;;14.28;79.90;100737.75;5588296;31;34339;-54
2022/04/27 14:08:57;;;;;;;17.52;14.77;;;;;;;14.24;77.70;100735.97;5588218;31;33820;-53
2022/04/27 14:15:21;;;;;;;14.48;12.82;;;;;;;14.18;78.53;100729.84;5568286;32;33681;-53
2022/04/27 14:18:24;;;;;;;13.93;12.32;;;;;;;14.20;78.48;100733.03;5568387;32;33665;-53
2022/04/27 14:21:27;;;;;;;14.77;12.98;;;;;;;14.32;78.99;100735.28;5567047;32;33484;-53
2022/04/27 14:24:30;;;;;;;15.05;13.18;;;;;;;14.06;78.62;100738.37;5568284;32;33857;-53
2022/04/27 14:27:33;;;;;;;15.77;12.82;;;;;;;14.13;80.10;100740.72;5568724;32;33708;-53
2022/04/27 14:30:36;;;;;;;14.15;12.50;;;;;;;14.18;79.58;100737.16;5578853;31;33655;-53
2022/04/27 14:33:38;;;;;;;13.32;11.93;;;;;;;14.22;80.91;100735.44;5585114;31;34608;-54
2022/04/27 14:36:41;;;;;;;13.35;11.95;;;;;;;14.13;81.08;100746.09;5572291;31;33662;-53
2022/04/27 14:39:43;;;;;;;14.70;11.32;;;;;;;14.06;80.08;100743.00;5568842;32;34210;-53
2022/04/27 14:42:46;;;;;;;14.63;12.02;;;;;;;14.21;79.63;100747.34;5568390;32;33571;-53
2022/04/27 14:45:48;;;;;;;14.45;12.10;;;;;;;14.06;79.32;100749.16;5569104;31;33831;-53
2022/04/27 14:48:51;;;;;;;14.98;12.93;;;;;;;13.91;81.41;100752.13;5588346;31;34478;-53
2022/04/27 14:51:53;;;;;;;15.15;12.98;;;;;;;13.73;80.30;100748.34;5569778;31;33716;-56
2022/04/27 14:54:56;;;;;;;14.90;12.32;;;;;;;13.49;81.74;100753.00;5574629;31;35119;-55
2022/04/27 14:57:59;;;;;;;13.38;11.27;;;;;;;13.56;83.22;100751.53;5588386;31;34292;-55
2022/04/27 15:01:01;;;;;;;14.80;11.57;;;;;;;13.60;81.49;100754.44;5587883;31;33744;-56
2022/04/27 15:04:04;;;;;;;13.57;11.63;;;;;;;13.70;82.88;100756.19;5588051;31;33780;-55
2022/04/27 15:07:06;;;;;;;11.32;9.23;;;;;;;13.61;82.88;100761.47;5580333;31;33606;-55
2022/04/27 15:10:09;;;;;;;10.35;8.43;;;;;;;13.63;82.27;100754.66;5568687;32;34313;-55
2022/04/27 15:13:11;;;;;;;11.93;9.45;;;;;;;13.68;82.62;100758.41;5569198;31;33648;-55
2022/04/27 15:16:14;;;;;;;10.60;7.43;;;;;;;13.75;84.56;100748.06;5568713;32;33939;-55
2022/04/27 15:19:16;;;;;;;11.82;7.68;;;;;;;13.97;81.99;100748.25;5569111;31;34394;-55
2022/04/27 15:25:39;;;;;;;11.82;9.57;;;;;;;13.79;85.23;100747.16;5568793;32;33348;-55
2022/04/27 15:28:41;;;;;;;12.27;9.95;;;;;;;13.80;84.52;100754.16;5585542;31;34294;-55
2022/04/27 15:31:44;;;;;;;14.07;9.65;;;;;;;13.70;86.08;100754.31;5581501;31;33711;-55
2022/04/27 15:34:46;;;;;;;10.73;9.07;;;;;;;13.74;85.74;100746.44;5581967;31;33271;-55
2022/04/27 15:37:53;;;;;;;10.38;8.30;;;;;;;13.83;82.88;100744.69;5588170;31;34441;-54
2022/04/27 15:40:55;;;;;;;10.80;8.48;;;;;;;13.82;84.59;100741.19;5588426;31;34444;-55
2022/04/27 15:43:58;;;;;;;11.32;8.85;;;;;;;13.92;82.55;100744.84;5588070;31;33700;-55
